Huvudsida
METAR-TAF:

METAR-TAF

Flygplatser :

Kalmar Öland Airport

Kalmar, Sverige

latitud: 56-44N, longitud: 016-18E, höjd: 16 m

Aktuellt väderrapport

Denna rapport gjordes för 20 minuter sedan, klockan 17:20 UTC
Vind 5 kt från syd/sydväst
Temperatur 9°C
Fuktighet 87%
Tryck 1006 hPa
Sikt 10 km eller mer

METAR: ESMQ 221720Z AUTO 20005KT 9999 NCD 09/07 Q1006

Tid: 19:40 (17:40 UTC)

Väderprognos

Denna rapport gjordes för 3 timmar och 10 minuter sedan, klockan 14:30 UTC
Prognos gäller från 22 kl. 15 UTC till 22 kl. 18 UTC
Vind 12 kt från väst i byarna ända upp till 25 kt
Sikt 10 km eller mer
Spridda moln på en höjd av 2500 ft
Sannolikhet 40%
från 22 kl. 15 UTC till 22 kl. 18 UTC
Brutna moln på en höjd av 3000 ft, Cumulonimbus.
regnskurar

TAF: ESMQ 221430Z 2215/2218 26012G25KT 9999 SCT025 PROB40 2215/2218 SHRA BKN030CB

Aktuella väderrapporter och prognoser från 4000 flygplatser (METAR- och TAF-rapporter).

De tillgängliga stationerna syns som gula och röda prickar på kartan.

För musen över prickarna för att se namnen på stationerna.

Klicka sedan för att få väderrapporter och prognoser.

För att ändra kartan: Klicka på de gröna knapparna med ett svart kors på för att zooma in; den gröna knappen med ett streck på för att zooma ut; eller på de gröna pilarna för angränsande kartor.


METAR-TAF: